Airport ICAO


20:18 UTC

23°C

Clear skies


An affordable passengers' Moving Map for your aircraft. Made for the iPad and the iPhone
More information here

EGKB Biggin Hill


London UNITED KINGDOM   VFR CAVOK


METAR EGKB 161950Z 21007KT CAVOK 23/09 Q1013 0h28min

TAF EGKB 161702Z 1618/1622 25006KT 9999 FEW045 3h16min





NOTAMS

OPEN